Time;durP1;ratioP1;P1;durP2;ratioP2;P2;SDS_P1;SDS_P2;PMS_P1;PMS_P2;Temp;Humidity;BMP_temperature;BMP_pressure;BME280_temperature;BME280_humidity;BME280_pressure;Samples;Min_cycle;Max_cycle;Signal;HPM_P1;HPM_P2
2023/05/04 00:00:36;;;;;;;1.75;1.50;;;;;;;;;;8283356;28;20137;-71
2023/05/04 00:04:36;;;;;;;3.65;1.65;;;;;;;;;;8283731;28;20919;-71
2023/05/04 00:08:37;;;;;;;4.65;1.58;;;;;;;;;;8282953;28;20033;-71
2023/05/04 00:12:37;;;;;;;3.72;1.70;;;;;;;;;;8286218;28;20048;-71
2023/05/04 00:16:38;;;;;;;3.33;1.60;;;;;;;;;;8283199;28;20053;-71
2023/05/04 00:20:38;;;;;;;3.77;1.50;;;;;;;;;;8283701;28;20389;-71
2023/05/04 00:24:38;;;;;;;2.63;1.83;;;;;;;;;;8284255;28;20828;-71
2023/05/04 00:28:38;;;;;;;2.00;1.65;;;;;;;;;;8285011;28;20025;-71
2023/05/04 00:32:38;;;;;;;3.75;1.77;;;;;;;;;;8289116;28;20106;-71
2023/05/04 00:36:42;;;;;;;3.13;1.50;;;;;;;;;;8293774;28;20018;-71
2023/05/04 00:40:42;;;;;;;3.08;1.63;;;;;;;;;;8287069;28;20659;-71
2023/05/04 00:44:43;;;;;;;3.65;1.70;;;;;;;;;;8294948;28;20127;-70
2023/05/04 00:48:45;;;;;;;1.73;1.42;;;;;;;;;;8281610;28;20095;-71
2023/05/04 00:52:45;;;;;;;1.98;1.60;;;;;;;;;;8289918;28;20980;-71
2023/05/04 00:56:46;;;;;;;1.80;1.70;;;;;;;;;;8289507;28;20448;-71
2023/05/04 01:00:46;;;;;;;4.97;2.10;;;;;;;;;;8287992;28;20049;-71
2023/05/04 01:04:47;;;;;;;2.58;1.80;;;;;;;;;;8290746;28;20045;-71
2023/05/04 01:08:54;;;;;;;2.85;1.67;;;;;;;;;;8287923;28;20103;-71
2023/05/04 01:13:06;;;;;;;3.63;1.80;;;;;;;;;;8288872;28;20024;-71
2023/05/04 01:17:07;;;;;;;3.65;2.00;;;;;;;;;;8288485;28;20767;-71
2023/05/04 01:21:08;;;;;;;3.70;1.45;;;;;;;;;;8287893;28;20383;-71
2023/05/04 01:25:09;;;;;;;2.47;1.63;;;;;;;;;;8292209;28;20128;-71
2023/05/04 01:29:12;;;;;;;2.00;1.80;;;;;;;;;;8288632;28;20064;-71
2023/05/04 01:33:12;;;;;;;4.75;1.88;;;;;;;;;;8294495;28;20394;-71
2023/05/04 01:37:13;;;;;;;2.63;1.70;;;;;;;;;;8283686;28;20029;-71
2023/05/04 01:41:13;;;;;;;2.15;1.73;;;;;;;;;;8292231;28;20040;-71
2023/05/04 01:45:13;;;;;;;3.33;1.85;;;;;;;;;;8291994;28;20021;-71
2023/05/04 01:49:13;;;;;;;4.13;1.83;;;;;;;;;;8289326;28;20064;-71
2023/05/04 01:53:14;;;;;;;2.40;1.92;;;;;;;;;;8285981;28;20040;-70
2023/05/04 01:57:14;;;;;;;2.17;1.77;;;;;;;;;;8285290;28;20116;-71
2023/05/04 02:01:14;;;;;;;2.00;1.80;;;;;;;;;;8290888;28;20041;-70
2023/05/04 02:05:15;;;;;;;2.63;2.17;;;;;;;;;;8288437;28;20054;-70
2023/05/04 02:09:15;;;;;;;2.33;1.90;;;;;;;;;;8287209;28;20037;-71
2023/05/04 02:13:15;;;;;;;3.15;1.70;;;;;;;;;;8288214;28;20115;-70
2023/05/04 02:17:16;;;;;;;2.28;1.95;;;;;;;;;;8288722;28;20720;-70
2023/05/04 02:21:16;;;;;;;3.20;2.10;;;;;;;;;;8287015;28;20631;-70
2023/05/04 02:25:16;;;;;;;7.05;1.92;;;;;;;;;;8288578;28;20076;-70
2023/05/04 02:29:16;;;;;;;3.43;2.20;;;;;;;;;;8291567;28;20029;-70
2023/05/04 02:33:16;;;;;;;2.33;2.00;;;;;;;;;;8296411;28;20288;-71
2023/05/04 02:37:17;;;;;;;3.78;2.00;;;;;;;;;;8287347;28;20033;-70
2023/05/04 02:41:17;;;;;;;2.85;2.10;;;;;;;;;;8293423;28;20025;-70
2023/05/04 02:45:17;;;;;;;3.70;2.10;;;;;;;;;;8283535;28;20579;-70
2023/05/04 02:49:18;;;;;;;2.47;1.98;;;;;;;;;;8291183;28;20490;-70
2023/05/04 02:53:18;;;;;;;3.45;1.73;;;;;;;;;;8284903;28;20025;-71
2023/05/04 02:57:18;;;;;;;2.15;1.92;;;;;;;;;;8291974;28;20029;-70
2023/05/04 03:01:18;;;;;;;3.10;2.10;;;;;;;;;;8284057;28;20037;-70
2023/05/04 03:05:18;;;;;;;3.13;1.90;;;;;;;;;;8289562;28;20025;-70
2023/05/04 03:09:18;;;;;;;2.97;1.97;;;;;;;;;;8280692;28;20031;-70
2023/05/04 03:13:19;;;;;;;3.65;1.90;;;;;;;;;;8287816;28;20037;-70
2023/05/04 03:17:19;;;;;;;3.45;1.90;;;;;;;;;;8284241;28;20041;-71
2023/05/04 03:21:20;;;;;;;3.33;1.90;;;;;;;;;;8299120;28;20126;-70
2023/05/04 03:25:20;;;;;;;2.65;1.70;;;;;;;;;;8286743;28;20573;-70
2023/05/04 03:29:20;;;;;;;4.17;1.97;;;;;;;;;;8283664;28;20092;-70
2023/05/04 03:33:20;;;;;;;4.32;2.50;;;;;;;;;;8285854;28;20280;-71
2023/05/04 03:37:21;;;;;;;2.30;2.10;;;;;;;;;;8286534;28;20414;-70
2023/05/04 03:41:21;;;;;;;4.43;2.40;;;;;;;;;;8288910;28;20052;-70
2023/05/04 03:45:22;;;;;;;2.65;2.08;;;;;;;;;;8283905;28;20505;-69
2023/05/04 03:49:22;;;;;;;2.92;2.20;;;;;;;;;;8288035;28;20025;-70
2023/05/04 03:53:22;;;;;;;4.07;2.60;;;;;;;;;;8284879;28;20040;-70
2023/05/04 03:57:23;;;;;;;5.10;2.33;;;;;;;;;;8287769;28;20022;-70
2023/05/04 04:01:23;;;;;;;4.03;2.22;;;;;;;;;;8295919;28;21218;-70
2023/05/04 04:05:23;;;;;;;5.50;2.28;;;;;;;;;;8292962;28;20540;-70
2023/05/04 04:09:23;;;;;;;10.20;2.40;;;;;;;;;;8292350;28;20110;-71
2023/05/04 04:13:24;;;;;;;3.90;2.40;;;;;;;;;;8292131;28;20286;-70
2023/05/04 04:17:24;;;;;;;3.33;1.90;;;;;;;;;;8288756;28;20029;-71
2023/05/04 04:21:25;;;;;;;2.60;2.20;;;;;;;;;;8289563;28;20030;-71
2023/05/04 04:25:25;;;;;;;2.72;2.25;;;;;;;;;;8301395;28;20033;-71
2023/05/04 04:29:26;;;;;;;3.67;2.08;;;;;;;;;;8290266;28;20029;-71
2023/05/04 04:33:26;;;;;;;2.42;2.22;;;;;;;;;;8289938;28;20033;-71
2023/05/04 04:37:27;;;;;;;4.40;2.28;;;;;;;;;;8286645;28;20049;-71
2023/05/04 04:41:27;;;;;;;4.72;1.83;;;;;;;;;;8298472;28;20024;-71
2023/05/04 04:45:27;;;;;;;5.15;2.20;;;;;;;;;;8296348;28;20034;-72
2023/05/04 04:49:27;;;;;;;2.67;2.17;;;;;;;;;;8288145;28;20021;-73
2023/05/04 04:53:27;;;;;;;2.45;1.98;;;;;;;;;;8290820;28;20580;-73
2023/05/04 04:57:28;;;;;;;3.55;2.00;;;;;;;;;;8289595;28;20033;-73
2023/05/04 05:01:28;;;;;;;4.07;2.20;;;;;;;;;;8288759;28;20473;-73
2023/05/04 05:05:28;;;;;;;4.00;1.85;;;;;;;;;;8293759;28;21129;-73
2023/05/04 05:09:29;;;;;;;4.17;2.17;;;;;;;;;;8295692;28;20040;-73
2023/05/04 05:13:30;;;;;;;3.42;2.38;;;;;;;;;;8307901;28;20330;-73
2023/05/04 05:17:30;;;;;;;6.85;2.40;;;;;;;;;;8305646;28;20919;-73
2023/05/04 05:21:30;;;;;;;4.07;2.50;;;;;;;;;;8303903;28;20025;-73
2023/05/04 05:25:30;;;;;;;3.28;2.30;;;;;;;;;;8310645;28;20281;-73
2023/05/04 05:29:31;;;;;;;5.95;2.60;;;;;;;;;;8314323;28;20047;-74
2023/05/04 05:33:31;;;;;;;3.47;2.33;;;;;;;;;;8310761;28;20041;-73
2023/05/04 05:37:31;;;;;;;4.57;2.47;;;;;;;;;;8302962;28;20120;-73
2023/05/04 05:41:31;;;;;;;3.33;2.35;;;;;;;;;;8301105;28;20036;-73
2023/05/04 05:45:32;;;;;;;4.28;2.50;;;;;;;;;;8296347;28;20033;-73
2023/05/04 05:49:32;;;;;;;4.50;2.80;;;;;;;;;;8303478;28;20044;-73
2023/05/04 05:53:32;;;;;;;5.68;2.60;;;;;;;;;;8301124;28;20032;-73
2023/05/04 05:57:32;;;;;;;3.17;2.63;;;;;;;;;;8303328;28;20029;-73
2023/05/04 06:01:32;;;;;;;4.78;2.67;;;;;;;;;;8301901;28;20030;-73
2023/05/04 06:05:32;;;;;;;3.17;2.30;;;;;;;;;;8302007;28;21047;-73
2023/05/04 06:09:33;;;;;;;5.07;2.20;;;;;;;;;;8309223;28;20025;-73
2023/05/04 06:13:33;;;;;;;3.05;2.40;;;;;;;;;;8304687;28;20025;-73
2023/05/04 06:17:34;;;;;;;3.95;2.60;;;;;;;;;;8304845;28;20033;-74
2023/05/04 06:21:34;;;;;;;5.45;2.70;;;;;;;;;;8303839;28;20183;-73
2023/05/04 06:25:35;;;;;;;5.72;2.42;;;;;;;;;;8307098;28;20104;-73
2023/05/04 06:29:37;;;;;;;5.38;2.30;;;;;;;;;;8310958;28;20125;-73
2023/05/04 06:33:37;;;;;;;6.03;2.25;;;;;;;;;;8300770;28;20080;-74
2023/05/04 06:37:37;;;;;;;3.60;2.33;;;;;;;;;;8301879;28;20087;-74
2023/05/04 06:41:38;;;;;;;3.95;2.50;;;;;;;;;;8297617;28;20506;-73
2023/05/04 06:45:38;;;;;;;8.45;2.50;;;;;;;;;;8303436;28;20045;-74
2023/05/04 06:49:38;;;;;;;6.03;2.30;;;;;;;;;;8295281;28;20059;-74
2023/05/04 06:53:39;;;;;;;6.10;2.45;;;;;;;;;;8301111;28;20025;-74
2023/05/04 06:57:39;;;;;;;4.72;2.40;;;;;;;;;;8294334;28;20032;-74
2023/05/04 07:01:40;;;;;;;3.30;2.43;;;;;;;;;;8297908;28;20499;-74
2023/05/04 07:05:41;;;;;;;3.55;2.58;;;;;;;;;;8288100;28;20017;-74
2023/05/04 07:09:42;;;;;;;3.10;2.40;;;;;;;;;;8295428;28;20022;-74
2023/05/04 07:13:42;;;;;;;4.93;2.70;;;;;;;;;;8295373;28;20037;-74
2023/05/04 07:17:42;;;;;;;3.55;2.50;;;;;;;;;;8294054;28;20033;-74
2023/05/04 07:21:46;;;;;;;4.15;2.70;;;;;;;;;;8304053;28;20021;-74
2023/05/04 07:25:46;;;;;;;;;;;;;;;;;;8297334;28;20026;-74
2023/05/04 07:29:47;;;;;;;3.65;2.72;;;;;;;;;;8301456;28;19959;-74
2023/05/04 07:33:47;;;;;;;5.68;2.40;;;;;;;;;;8294159;28;20049;-74
2023/05/04 07:37:48;;;;;;;3.33;2.70;;;;;;;;;;8302014;28;20105;-74
2023/05/04 07:41:50;;;;;;;7.72;3.20;;;;;;;;;;8307786;28;20176;-74
2023/05/04 07:45:53;;;;;;;5.50;2.97;;;;;;;;;;8302582;28;20036;-74
2023/05/04 07:49:53;;;;;;;6.18;3.33;;;;;;;;;;8306838;28;20691;-74
2023/05/04 07:53:53;;;;;;;7.38;3.20;;;;;;;;;;8303410;28;20037;-74
2023/05/04 07:57:54;;;;;;;4.45;3.47;;;;;;;;;;8312360;28;20026;-74
2023/05/04 08:01:54;;;;;;;6.82;3.63;;;;;;;;;;8300077;28;20041;-74
2023/05/04 08:05:54;;;;;;;4.37;3.17;;;;;;;;;;8306332;28;20021;-74
2023/05/04 08:09:55;;;;;;;6.65;3.45;;;;;;;;;;8308552;28;20331;-74
2023/05/04 08:13:55;;;;;;;7.82;3.38;;;;;;;;;;8306888;28;20032;-74
2023/05/04 08:17:56;;;;;;;6.03;3.30;;;;;;;;;;8299096;28;20098;-74
2023/05/04 08:21:56;;;;;;;3.33;3.03;;;;;;;;;;8307119;28;20108;-74
2023/05/04 08:25:56;;;;;;;4.88;3.22;;;;;;;;;;8310798;28;20264;-74
2023/05/04 08:29:57;;;;;;;4.32;3.50;;;;;;;;;;8301386;28;20335;-74
2023/05/04 08:33:57;;;;;;;8.57;3.97;;;;;;;;;;8304865;28;20547;-74
2023/05/04 08:37:57;;;;;;;4.90;3.25;;;;;;;;;;8307121;28;20140;-74
2023/05/04 08:41:57;;;;;;;4.80;4.20;;;;;;;;;;8316079;28;20120;-74
2023/05/04 08:45:58;;;;;;;5.47;4.03;;;;;;;;;;8315486;28;20098;-74
2023/05/04 08:49:58;;;;;;;6.57;3.83;;;;;;;;;;8314038;28;20025;-74
2023/05/04 08:53:58;;;;;;;6.20;4.20;;;;;;;;;;8330933;28;20072;-74
2023/05/04 08:58:03;;;;;;;5.93;4.70;;;;;;;;;;8324784;28;20031;-75
2023/05/04 09:02:03;;;;;;;6.15;5.00;;;;;;;;;;8318203;28;20288;-74
2023/05/04 09:06:05;;;;;;;7.57;4.75;;;;;;;;;;8323904;28;20052;-74
2023/05/04 09:10:06;;;;;;;5.60;5.00;;;;;;;;;;8306045;28;20037;-74
2023/05/04 09:14:06;;;;;;;5.97;4.50;;;;;;;;;;8318561;28;20025;-74
2023/05/04 09:18:08;;;;;;;5.45;4.47;;;;;;;;;;8314998;28;20045;-74
2023/05/04 09:22:15;;;;;;;6.80;4.78;;;;;;;;;;8313224;28;20043;-74
2023/05/04 09:26:29;;;;;;;6.35;4.97;;;;;;;;;;8311470;28;20095;-74
2023/05/04 09:30:29;;;;;;;5.43;4.32;;;;;;;;;;8305738;28;20045;-74
2023/05/04 09:34:31;;;;;;;4.82;4.30;;;;;;;;;;8308298;28;20266;-74
2023/05/04 09:38:31;;;;;;;6.68;4.60;;;;;;;;;;8319731;28;20198;-75
2023/05/04 09:42:31;;;;;;;7.30;4.40;;;;;;;;;;8315883;28;20018;-75
2023/05/04 09:46:31;;;;;;;5.70;4.30;;;;;;;;;;8295141;28;20102;-74
2023/05/04 09:50:34;;;;;;;8.00;4.82;;;;;;;;;;8287049;28;20022;-74
2023/05/04 09:54:35;;;;;;;7.20;5.22;;;;;;;;;;8288821;28;20834;-74
2023/05/04 09:58:35;;;;;;;7.90;5.47;;;;;;;;;;8301968;28;20096;-74
2023/05/04 10:02:36;;;;;;;7.05;5.00;;;;;;;;;;8287053;28;20034;-74
2023/05/04 10:06:36;;;;;;;11.95;4.97;;;;;;;;;;8302508;28;20034;-74
2023/05/04 10:10:37;;;;;;;7.13;4.40;;;;;;;;;;8286215;28;20687;-76
2023/05/04 10:14:37;;;;;;;7.97;5.25;;;;;;;;;;8293433;28;20026;-75
2023/05/04 10:18:45;;;;;;;8.70;5.45;;;;;;;;;;8298271;28;20045;-75
2023/05/04 10:23:05;;;;;;;8.05;5.07;;;;;;;;;;8304333;28;20176;-74
2023/05/04 10:27:16;;;;;;;7.10;5.28;;;;;;;;;;8283366;28;20030;-74
2023/05/04 10:31:17;;;;;;;8.60;5.20;;;;;;;;;;8302884;28;20044;-74
2023/05/04 10:35:18;;;;;;;8.73;4.70;;;;;;;;;;8339233;28;20026;-74
2023/05/04 10:39:29;;;;;;;8.73;5.15;;;;;;;;;;8342499;28;20029;-74
2023/05/04 10:43:29;;;;;;;6.70;4.43;;;;;;;;;;8321296;28;20032;-75
2023/05/04 10:47:31;;;;;;;6.35;5.00;;;;;;;;;;8326406;28;20029;-74
2023/05/04 10:51:31;;;;;;;9.80;5.30;;;;;;;;;;8331039;28;20621;-74
2023/05/04 10:55:37;;;;;;;7.38;5.00;;;;;;;;;;8334103;28;20036;-75
2023/05/04 10:59:38;;;;;;;6.43;4.65;;;;;;;;;;8323387;28;20036;-73
2023/05/04 11:03:42;;;;;;;7.00;4.60;;;;;;;;;;8325812;28;20033;-74
2023/05/04 11:07:42;;;;;;;5.30;4.50;;;;;;;;;;8336821;28;20028;-74
2023/05/04 11:11:42;;;;;;;7.70;4.32;;;;;;;;;;8330032;28;20014;-74
2023/05/04 11:15:44;;;;;;;7.45;4.63;;;;;;;;;;8329010;28;20041;-74
2023/05/04 11:19:50;;;;;;;6.53;4.30;;;;;;;;;;8324512;28;20021;-74
2023/05/04 11:23:55;;;;;;;5.15;4.20;;;;;;;;;;8330332;28;20048;-74
2023/05/04 11:27:57;;;;;;;7.75;4.30;;;;;;;;;;8336020;28;20033;-74
2023/05/04 11:31:57;;;;;;;5.10;4.25;;;;;;;;;;8340374;28;20064;-74
2023/05/04 11:36:00;;;;;;;6.20;3.65;;;;;;;;;;8334417;28;20045;-74
2023/05/04 11:40:00;;;;;;;3.78;3.47;;;;;;;;;;8334533;28;20049;-74
2023/05/04 11:44:02;;;;;;;3.72;3.30;;;;;;;;;;8329291;28;20041;-74
2023/05/04 11:48:03;;;;;;;4.65;3.40;;;;;;;;;;8330141;28;20044;-74
2023/05/04 11:52:04;;;;;;;4.70;3.00;;;;;;;;;;8335390;28;20033;-74
2023/05/04 11:56:05;;;;;;;5.43;3.13;;;;;;;;;;8332129;28;20041;-74
2023/05/04 12:00:06;;;;;;;2.85;2.30;;;;;;;;;;8335109;28;20590;-74
2023/05/04 12:04:07;;;;;;;4.07;2.00;;;;;;;;;;8334068;28;20160;-74
2023/05/04 12:08:11;;;;;;;3.45;1.90;;;;;;;;;;8329019;28;20034;-74
2023/05/04 12:12:11;;;;;;;5.72;2.35;;;;;;;;;;8324464;28;20021;-74
2023/05/04 12:16:15;;;;;;;8.15;2.55;;;;;;;;;;8327743;28;20390;-74
2023/05/04 12:20:21;;;;;;;2.67;2.10;;;;;;;;;;8333108;28;20032;-75
2023/05/04 12:24:22;;;;;;;2.42;2.22;;;;;;;;;;8328389;28;20434;-74
2023/05/04 12:28:25;;;;;;;3.45;2.08;;;;;;;;;;8336749;28;20017;-74
2023/05/04 12:32:25;;;;;;;4.93;3.30;;;;;;;;;;8336866;28;20045;-74
2023/05/04 12:36:26;;;;;;;3.57;2.50;;;;;;;;;;8329025;28;20060;-75
2023/05/04 12:40:26;;;;;;;6.88;2.90;;;;;;;;;;8326456;28;20107;-75
2023/05/04 12:44:26;;;;;;;4.00;2.47;;;;;;;;;;8325258;28;20043;-74
2023/05/04 12:48:27;;;;;;;5.93;2.28;;;;;;;;;;8328067;28;20030;-74
2023/05/04 12:52:28;;;;;;;4.68;2.42;;;;;;;;;;8339245;28;20060;-74
2023/05/04 12:56:29;;;;;;;3.92;2.47;;;;;;;;;;8344969;28;20073;-74
2023/05/04 13:00:30;;;;;;;3.08;2.78;;;;;;;;;;8334279;28;20041;-74
2023/05/04 13:04:30;;;;;;;6.40;2.50;;;;;;;;;;8320720;28;20032;-75
2023/05/04 13:08:32;;;;;;;6.73;2.50;;;;;;;;;;8318502;28;20112;-75
2023/05/04 13:12:32;;;;;;;4.68;2.80;;;;;;;;;;8327306;28;20357;-75
2023/05/04 13:16:33;;;;;;;2.97;2.33;;;;;;;;;;8318012;28;20093;-76
2023/05/04 13:20:33;;;;;;;5.13;2.30;;;;;;;;;;8315235;28;20034;-75
2023/05/04 13:24:33;;;;;;;3.15;2.28;;;;;;;;;;8313169;28;20025;-75
2023/05/04 13:28:33;;;;;;;2.50;2.30;;;;;;;;;;8307862;28;20056;-75
2023/05/04 13:32:35;;;;;;;5.00;2.28;;;;;;;;;;8308735;28;20080;-75
2023/05/04 13:36:35;;;;;;;4.00;2.35;;;;;;;;;;8314883;28;20026;-75
2023/05/04 13:40:35;;;;;;;3.53;2.90;;;;;;;;;;8325138;28;20040;-74
2023/05/04 13:44:35;;;;;;;3.03;2.43;;;;;;;;;;8320562;28;20057;-75
2023/05/04 13:48:36;;;;;;;2.28;2.05;;;;;;;;;;8312751;28;20987;-75
2023/05/04 13:52:36;;;;;;;3.08;2.60;;;;;;;;;;8314271;28;20144;-75
2023/05/04 13:56:36;;;;;;;4.10;2.07;;;;;;;;;;8315738;28;20056;-74
2023/05/04 14:00:36;;;;;;;3.58;2.55;;;;;;;;;;8327120;28;20040;-74
2023/05/04 14:04:37;;;;;;;2.83;2.00;;;;;;;;;;8332078;28;20468;-74
2023/05/04 14:08:37;;;;;;;2.80;2.40;;;;;;;;;;8322257;28;20105;-75
2023/05/04 14:12:37;;;;;;;5.13;2.30;;;;;;;;;;8334707;28;20067;-74
2023/05/04 14:16:38;;;;;;;6.28;2.45;;;;;;;;;;8332499;28;20037;-74
2023/05/04 14:20:38;;;;;;;4.05;2.30;;;;;;;;;;8326277;28;20026;-75
2023/05/04 14:24:39;;;;;;;4.38;2.33;;;;;;;;;;8324010;28;20107;-75
2023/05/04 14:28:39;;;;;;;2.75;2.22;;;;;;;;;;8331022;28;20068;-75
2023/05/04 14:32:39;;;;;;;5.15;2.40;;;;;;;;;;8330861;28;20029;-74
2023/05/04 14:36:40;;;;;;;3.85;2.13;;;;;;;;;;8329656;28;20055;-74
2023/05/04 14:40:40;;;;;;;4.03;2.15;;;;;;;;;;8327703;28;20049;-74
2023/05/04 14:44:40;;;;;;;2.67;2.47;;;;;;;;;;8331313;28;20056;-74
2023/05/04 14:48:40;;;;;;;4.83;2.53;;;;;;;;;;8324112;28;20034;-74
2023/05/04 14:52:41;;;;;;;3.27;2.30;;;;;;;;;;8330484;28;20497;-74
2023/05/04 14:56:41;;;;;;;2.35;2.15;;;;;;;;;;8324388;28;20037;-74
2023/05/04 15:00:42;;;;;;;3.47;2.33;;;;;;;;;;8325244;28;20033;-75
2023/05/04 15:04:44;;;;;;;5.55;2.53;;;;;;;;;;8327698;28;20116;-75
2023/05/04 15:08:44;;;;;;;4.35;2.20;;;;;;;;;;8328657;28;20033;-75
2023/05/04 15:12:44;;;;;;;2.58;2.20;;;;;;;;;;8326735;28;20021;-74
2023/05/04 15:16:44;;;;;;;3.40;2.28;;;;;;;;;;8331729;28;20041;-75
2023/05/04 15:20:47;;;;;;;3.65;2.35;;;;;;;;;;8325552;28;20028;-74
2023/05/04 15:24:47;;;;;;;3.63;2.20;;;;;;;;;;8327695;28;20057;-74
2023/05/04 15:28:47;;;;;;;4.00;2.03;;;;;;;;;;8330227;28;20079;-74
2023/05/04 15:32:47;;;;;;;3.17;1.90;;;;;;;;;;8331050;28;20075;-74
2023/05/04 15:36:48;;;;;;;3.08;2.20;;;;;;;;;;8336461;28;20025;-74
2023/05/04 15:40:48;;;;;;;2.53;2.03;;;;;;;;;;8336523;28;20029;-76
2023/05/04 15:44:49;;;;;;;3.75;2.20;;;;;;;;;;8328771;28;20026;-74
2023/05/04 15:48:49;;;;;;;3.53;2.33;;;;;;;;;;8324058;28;20103;-75
2023/05/04 15:52:49;;;;;;;4.35;2.45;;;;;;;;;;8314071;28;20835;-75
2023/05/04 15:56:50;;;;;;;5.55;2.33;;;;;;;;;;8322529;28;20036;-74
2023/05/04 16:00:50;;;;;;;3.53;2.30;;;;;;;;;;8319963;28;20045;-75
2023/05/04 16:04:51;;;;;;;5.78;2.05;;;;;;;;;;8326111;28;20033;-74
2023/05/04 16:08:57;;;;;;;3.67;2.10;;;;;;;;;;8337530;28;20021;-75
2023/05/04 16:13:02;;;;;;;3.17;2.20;;;;;;;;;;8323107;28;20044;-75
2023/05/04 16:17:02;;;;;;;3.10;2.03;;;;;;;;;;8310330;28;20105;-75
2023/05/04 16:21:03;;;;;;;3.33;2.10;;;;;;;;;;8308658;28;20102;-75
2023/05/04 16:25:03;;;;;;;4.03;2.05;;;;;;;;;;8306645;28;20036;-75
2023/05/04 16:29:04;;;;;;;5.85;2.20;;;;;;;;;;8315313;28;20082;-76
2023/05/04 16:33:04;;;;;;;2.33;2.10;;;;;;;;;;8330197;28;20818;-75
2023/05/04 16:37:04;;;;;;;3.43;2.00;;;;;;;;;;8326023;28;20206;-74
2023/05/04 16:41:04;;;;;;;2.15;1.98;;;;;;;;;;8317492;28;20539;-75
2023/05/04 16:45:05;;;;;;;4.82;1.95;;;;;;;;;;8327086;28;20033;-75
2023/05/04 16:49:06;;;;;;;4.82;2.20;;;;;;;;;;8336516;28;20865;-74
2023/05/04 16:53:06;;;;;;;2.22;1.85;;;;;;;;;;8324686;28;20021;-74
2023/05/04 16:57:06;;;;;;;6.03;2.03;;;;;;;;;;8326503;28;20088;-74
2023/05/04 17:01:06;;;;;;;3.75;2.20;;;;;;;;;;8326332;28;20045;-75
2023/05/04 17:05:09;;;;;;;3.00;1.95;;;;;;;;;;8335970;28;20091;-74
2023/05/04 17:09:09;;;;;;;6.40;2.00;;;;;;;;;;8332572;28;20018;-74
2023/05/04 17:13:10;;;;;;;4.93;2.10;;;;;;;;;;8329353;28;20037;-74
2023/05/04 17:17:10;;;;;;;2.20;2.00;;;;;;;;;;8323226;28;20164;-74
2023/05/04 17:21:11;;;;;;;3.45;2.10;;;;;;;;;;8323721;28;20029;-74
2023/05/04 17:25:11;;;;;;;4.20;2.08;;;;;;;;;;8342135;28;20025;-74
2023/05/04 17:29:11;;;;;;;3.08;2.00;;;;;;;;;;8342594;28;20025;-74
2023/05/04 17:33:12;;;;;;;2.37;1.90;;;;;;;;;;8336606;28;20037;-74
2023/05/04 17:37:12;;;;;;;2.00;1.90;;;;;;;;;;8328646;28;20033;-74
2023/05/04 17:41:12;;;;;;;2.17;1.98;;;;;;;;;;8328512;28;20052;-75
2023/05/04 17:45:12;;;;;;;3.00;2.20;;;;;;;;;;8317997;28;20021;-75
2023/05/04 17:49:12;;;;;;;5.72;2.50;;;;;;;;;;8324931;28;20024;-75
2023/05/04 17:53:13;;;;;;;3.60;2.60;;;;;;;;;;8314481;28;20022;-75
2023/05/04 17:57:15;;;;;;;5.80;2.38;;;;;;;;;;8312898;28;20025;-75
2023/05/04 18:01:15;;;;;;;6.00;2.63;;;;;;;;;;8316120;28;20048;-74
2023/05/04 18:05:16;;;;;;;2.55;2.30;;;;;;;;;;8323899;28;20017;-75
2023/05/04 18:09:16;;;;;;;6.30;2.17;;;;;;;;;;8325126;28;20364;-74
2023/05/04 18:13:16;;;;;;;5.70;2.22;;;;;;;;;;8321074;28;20091;-75
2023/05/04 18:17:16;;;;;;;2.95;2.17;;;;;;;;;;8309011;28;20045;-75
2023/05/04 18:21:16;;;;;;;4.85;1.90;;;;;;;;;;8312333;28;20212;-75
2023/05/04 18:25:16;;;;;;;3.45;2.10;;;;;;;;;;8306022;28;20100;-75
2023/05/04 18:29:17;;;;;;;4.05;2.40;;;;;;;;;;8308799;28;20045;-74
2023/05/04 18:33:17;;;;;;;4.43;2.00;;;;;;;;;;8321828;28;20041;-75
2023/05/04 18:37:17;;;;;;;2.05;1.92;;;;;;;;;;8319597;28;20056;-75
2023/05/04 18:41:17;;;;;;;10.73;2.28;;;;;;;;;;8314940;28;20022;-74
2023/05/04 18:45:18;;;;;;;4.32;2.10;;;;;;;;;;8313020;28;20038;-75
2023/05/04 18:49:18;;;;;;;3.53;2.08;;;;;;;;;;8307350;28;20021;-75
2023/05/04 18:53:18;;;;;;;3.75;1.80;;;;;;;;;;8306934;28;20929;-75
2023/05/04 18:57:18;;;;;;;6.40;1.73;;;;;;;;;;8307992;28;20091;-75
2023/05/04 19:01:18;;;;;;;5.82;1.80;;;;;;;;;;8291949;28;20037;-75
2023/05/04 19:05:19;;;;;;;2.13;1.93;;;;;;;;;;8285876;28;20025;-74
2023/05/04 19:09:19;;;;;;;6.38;3.00;;;;;;;;;;8288684;28;20036;-74
2023/05/04 19:13:19;;;;;;;3.70;2.28;;;;;;;;;;8298352;28;20053;-74
2023/05/04 19:17:20;;;;;;;2.63;2.22;;;;;;;;;;8279542;28;20061;-74
2023/05/04 19:21:20;;;;;;;3.50;2.03;;;;;;;;;;8289458;28;20025;-74
2023/05/04 19:25:21;;;;;;;2.30;1.80;;;;;;;;;;8281758;28;20276;-74
2023/05/04 19:29:21;;;;;;;3.63;2.07;;;;;;;;;;8280581;28;20108;-74
2023/05/04 19:33:22;;;;;;;5.20;2.03;;;;;;;;;;8292328;28;20367;-74
2023/05/04 19:37:23;;;;;;;3.88;2.20;;;;;;;;;;8290442;28;20064;-73
2023/05/04 19:41:23;;;;;;;1.90;1.58;;;;;;;;;;8284795;28;20053;-73
2023/05/04 19:45:23;;;;;;;2.00;1.77;;;;;;;;;;8285849;28;20018;-73
2023/05/04 19:49:24;;;;;;;5.75;1.83;;;;;;;;;;8283034;28;20025;-73
2023/05/04 19:53:24;;;;;;;1.98;1.60;;;;;;;;;;8295365;28;20045;-73
2023/05/04 19:57:25;;;;;;;3.60;1.80;;;;;;;;;;8284307;28;20029;-74
2023/05/04 20:01:25;;;;;;;3.03;1.92;;;;;;;;;;8291609;28;20820;-73
2023/05/04 20:05:26;;;;;;;3.92;2.00;;;;;;;;;;8290903;28;20055;-73
2023/05/04 20:09:27;;;;;;;5.85;2.10;;;;;;;;;;8289224;28;20033;-73
2023/05/04 20:13:28;;;;;;;3.25;2.03;;;;;;;;;;8291722;28;20762;-73
2023/05/04 20:17:28;;;;;;;3.38;2.08;;;;;;;;;;8280730;28;20121;-73
2023/05/04 20:21:28;;;;;;;2.30;2.10;;;;;;;;;;8282394;28;20041;-73
2023/05/04 20:25:28;;;;;;;6.15;2.05;;;;;;;;;;8280600;28;20033;-73
2023/05/04 20:29:29;;;;;;;3.58;1.92;;;;;;;;;;8281837;28;20025;-73
2023/05/04 20:33:29;;;;;;;2.50;2.30;;;;;;;;;;8279523;28;20761;-73
2023/05/04 20:37:29;;;;;;;4.78;2.20;;;;;;;;;;8283254;28;20279;-73
2023/05/04 20:41:31;;;;;;;4.70;1.80;;;;;;;;;;8284553;28;20064;-73
2023/05/04 20:45:32;;;;;;;2.53;2.00;;;;;;;;;;8286133;28;20037;-73
2023/05/04 20:49:32;;;;;;;4.55;1.90;;;;;;;;;;8287194;28;20022;-74
2023/05/04 20:53:35;;;;;;;3.45;2.17;;;;;;;;;;8291128;28;20028;-74
2023/05/04 20:57:36;;;;;;;3.05;1.88;;;;;;;;;;8288519;28;20536;-74
2023/05/04 21:01:36;;;;;;;5.03;2.25;;;;;;;;;;8283276;28;20038;-74
2023/05/04 21:05:37;;;;;;;3.17;2.10;;;;;;;;;;8288763;28;20510;-74
2023/05/04 21:09:37;;;;;;;3.63;2.15;;;;;;;;;;8286260;28;20057;-74
2023/05/04 21:13:37;;;;;;;4.97;2.17;;;;;;;;;;8294554;28;20030;-74
2023/05/04 21:17:40;;;;;;;3.75;1.83;;;;;;;;;;8286964;28;20041;-74
2023/05/04 21:21:41;;;;;;;2.20;2.00;;;;;;;;;;8290705;28;20038;-74
2023/05/04 21:25:41;;;;;;;3.83;2.10;;;;;;;;;;8286639;28;20033;-74
2023/05/04 21:29:41;;;;;;;3.40;1.90;;;;;;;;;;8286830;28;20083;-74
2023/05/04 21:33:41;;;;;;;3.50;2.00;;;;;;;;;;8285362;28;20041;-75
2023/05/04 21:37:41;;;;;;;3.45;1.90;;;;;;;;;;8287250;28;20021;-74
2023/05/04 21:41:42;;;;;;;2.38;2.17;;;;;;;;;;8285030;28;20021;-74
2023/05/04 21:45:42;;;;;;;3.58;2.03;;;;;;;;;;8284420;28;20029;-75
2023/05/04 21:49:42;;;;;;;4.40;2.10;;;;;;;;;;8281740;28;20761;-74
2023/05/04 21:53:42;;;;;;;1.85;1.60;;;;;;;;;;8276991;28;20021;-74
2023/05/04 21:57:43;;;;;;;3.47;1.90;;;;;;;;;;8285501;28;20047;-74
2023/05/04 22:01:43;;;;;;;4.65;1.92;;;;;;;;;;8280672;28;20168;-74
2023/05/04 22:05:49;;;;;;;2.63;2.10;;;;;;;;;;8284919;28;20033;-74
2023/05/04 22:09:51;;;;;;;2.97;1.92;;;;;;;;;;8282215;28;20013;-74
2023/05/04 22:13:51;;;;;;;1.70;1.60;;;;;;;;;;8284655;28;20041;-74
2023/05/04 22:17:51;;;;;;;2.10;1.80;;;;;;;;;;8285308;28;20554;-74
2023/05/04 22:21:51;;;;;;;2.78;1.90;;;;;;;;;;8287082;28;20041;-74
2023/05/04 22:25:51;;;;;;;3.67;1.90;;;;;;;;;;8282889;28;20059;-74
2023/05/04 22:29:52;;;;;;;3.30;2.10;;;;;;;;;;8290251;28;20032;-74
2023/05/04 22:33:52;;;;;;;3.97;1.85;;;;;;;;;;8295077;28;20045;-74
2023/05/04 22:37:52;;;;;;;2.35;1.85;;;;;;;;;;8284434;28;20030;-74
2023/05/04 22:41:52;;;;;;;3.17;2.20;;;;;;;;;;8290033;28;20513;-75
2023/05/04 22:45:53;;;;;;;2.10;1.90;;;;;;;;;;8282699;28;20533;-74
2023/05/04 22:49:53;;;;;;;3.30;2.00;;;;;;;;;;8284415;28;20057;-75
2023/05/04 22:53:53;;;;;;;3.60;2.10;;;;;;;;;;8284326;28;20032;-74
2023/05/04 22:57:54;;;;;;;3.25;2.08;;;;;;;;;;8283454;28;20044;-75
2023/05/04 23:01:54;;;;;;;2.47;2.03;;;;;;;;;;8284901;28;20077;-74
2023/05/04 23:05:57;;;;;;;2.53;1.90;;;;;;;;;;8284203;28;20029;-74
2023/05/04 23:09:58;;;;;;;4.18;1.75;;;;;;;;;;8281368;28;20037;-74
2023/05/04 23:13:58;;;;;;;3.50;1.90;;;;;;;;;;8288106;28;20032;-74
2023/05/04 23:17:58;;;;;;;2.35;1.80;;;;;;;;;;8292092;28;20498;-74
2023/05/04 23:21:59;;;;;;;2.40;1.90;;;;;;;;;;8286811;28;20036;-74
2023/05/04 23:25:59;;;;;;;2.88;1.88;;;;;;;;;;8285856;28;21182;-74
2023/05/04 23:29:59;;;;;;;3.65;2.03;;;;;;;;;;8291471;28;20025;-74
2023/05/04 23:33:59;;;;;;;3.15;1.95;;;;;;;;;;8286769;28;20038;-75
2023/05/04 23:38:00;;;;;;;3.17;2.15;;;;;;;;;;8286504;28;20029;-74
2023/05/04 23:42:00;;;;;;;3.90;2.50;;;;;;;;;;8279320;28;20041;-74
2023/05/04 23:46:01;;;;;;;10.43;2.50;;;;;;;;;;8282001;28;20860;-74
2023/05/04 23:50:01;;;;;;;3.70;2.05;;;;;;;;;;8287661;28;20075;-74
2023/05/04 23:54:02;;;;;;;4.60;2.50;;;;;;;;;;8281366;28;20022;-74
2023/05/04 23:58:02;;;;;;;6.30;2.20;;;;;;;;;;8283172;28;20633;-74
